Gure Fatima : — EAWO — position and weather

sailwx.info

Track history (hours):
 
Tides and Currents Weather Stations Pressure Air Temp Water Temp Dewpoint Dewpoint Depression Visibility Wind Speed Wind Dir Waves Ship Positions

Gure Fatima :

Last reported at 2018-Apr-20 14:00 UTC. Time now 2018-Apr-21 11:49 UTC.
Position N 43°25' W 002°43'.

Length 28 m; draft 3.2 m.

Type: Fishing. MMSI: 224081840.

Date/timePositionNaut miles runAvg speedWind from/ knotsBaromVisibWave heightAir tempDewpointWater temp
2018-Apr-20 14:00N 43°25' W 002°43'3 6.2
2018-Apr-20 13:29N 43°28' W 002°43'4 5.8
2018-Apr-20 12:52N 43°32' W 002°44'0 0.8
2018-Apr-20 12:25N 43°32' W 002°44'0 0.5
2018-Apr-20 12:00N 43°32' W 002°43'0 0.5
2018-Apr-20 11:30N 43°33' W 002°43'0 0.6
2018-Apr-20 11:00N 43°33' W 002°43'0 0.8
2018-Apr-20 10:26N 43°33' W 002°43'0 0.7
2018-Apr-20 10:00N 43°33' W 002°42'0 0.5
2018-Apr-20 09:31N 43°33' W 002°42'0 0.6
2018-Apr-20 09:00N 43°34' W 002°42'0 0.6
2018-Apr-20 08:30N 43°34' W 002°41'0 0.6
2018-Apr-20 08:00N 43°34' W 002°41'0 0.6
2018-Apr-20 07:31N 43°34' W 002°41'0 0.4
2018-Apr-20 06:58N 43°34' W 002°41'0 0.5
2018-Apr-20 06:30N 43°34' W 002°40'1 2.6
2018-Apr-20 05:59N 43°34' W 002°38'0 0.5
2018-Apr-20 05:30N 43°34' W 002°39'0 0.6
2018-Apr-20 05:00N 43°35' W 002°39'0 0.6
2018-Apr-20 04:30N 43°35' W 002°40'0 0.7
2018-Apr-20 04:00N 43°35' W 002°40'0 0.8
2018-Apr-20 03:30N 43°34' W 002°40'2 3.2
2018-Apr-20 03:00N 43°33' W 002°42'2 3.1
2018-Apr-20 02:30N 43°32' W 002°43'2 4.0
2018-Apr-20 01:59N 43°34' W 002°43'0 0.6
2018-Apr-20 01:30N 43°34' W 002°43'0 0.6
2018-Apr-20 00:57N 43°34' W 002°44'0 0.5
2018-Apr-20 00:30N 43°34' W 002°44'0 0.6
2018-Apr-20 00:00N 43°34' W 002°44'0 0.5
2018-Apr-19 23:30N 43°33' W 002°44'0 0.4
2018-Apr-19 22:59N 43°33' W 002°45'0 0.2
2018-Apr-19 22:30N 43°33' W 002°45'0 0.3
2018-Apr-19 21:57N 43°33' W 002°44'0 0.5
2018-Apr-19 21:30N 43°33' W 002°44'0 0.4
2018-Apr-19 21:00N 43°33' W 002°44'0 0.3
2018-Apr-19 20:26N 43°33' W 002°44'0 0.3
2018-Apr-19 20:01N 43°33' W 002°44'0 0.2
2018-Apr-19 19:30N 43°33' W 002°44'0 0.3
2018-Apr-19 19:00N 43°32' W 002°43'0 0.2
2018-Apr-19 18:30N 43°32' W 002°43'0 0.1
2018-Apr-19 18:00N 43°33' W 002°43'0 0.5
2018-Apr-19 17:31N 43°32' W 002°43'0 0.3
2018-Apr-19 17:00N 43°32' W 002°43'0 0.3
2018-Apr-19 16:30N 43°33' W 002°43'0 0.3
2018-Apr-19 16:01N 43°33' W 002°43'0 0.3
2018-Apr-19 15:30N 43°33' W 002°43'0 0.5
2018-Apr-19 14:59N 43°33' W 002°43'0 0.5
2018-Apr-19 14:30N 43°33' W 002°43'0 0.3
2018-Apr-19 14:01N 43°33' W 002°42'0 0.3
2018-Apr-19 13:30N 43°33' W 002°42'0 0.4
2018-Apr-19 13:00N 43°33' W 002°42'0 0.4
2018-Apr-19 12:30N 43°34' W 002°42'0 0.6
2018-Apr-19 12:00N 43°34' W 002°41'0 0.2
2018-Apr-19 11:30N 43°34' W 002°41'0 0.3
2018-Apr-19 11:00N 43°34' W 002°41'0 0.6
2018-Apr-19 10:30N 43°34' W 002°41'0 0.5
2018-Apr-19 10:00N 43°34' W 002°41'0 0.4
2018-Apr-19 09:30N 43°35' W 002°41'0 0.4
2018-Apr-19 09:00N 43°35' W 002°40'0 0.4
2018-Apr-19 08:29N 43°35' W 002°40'0 0.5
2018-Apr-19 08:00N 43°35' W 002°40'0 0.5
2018-Apr-19 07:31N 43°35' W 002°40'1 1.4
2018-Apr-19 07:00N 43°36' W 002°40'0 0.3
2018-Apr-19 06:30N 43°36' W 002°40'0 0.4
2018-Apr-19 06:01N 43°36' W 002°40'0 0.2
2018-Apr-19 05:30N 43°36' W 002°40'0 0.3
2018-Apr-19 05:00N 43°36' W 002°40'1 1.1
2018-Apr-19 04:30N 43°35' W 002°40'1 1.8
2018-Apr-19 03:59N 43°34' W 002°41'1 2.3
2018-Apr-19 03:30N 43°33' W 002°42'1 2.6
2018-Apr-19 02:59N 43°32' W 002°43'2 3.1
2018-Apr-19 02:29N 43°31' W 002°43'3 7.2
2018-Apr-19 02:00N 43°28' W 002°42'3 5.1
2018-Apr-19 01:30N 43°25' W 002°43'0 0.0
2018-Apr-18 19:27N 43°25' W 002°43'0 0.5
2018-Apr-18 18:42N 43°25' W 002°43'2 7.8
2018-Apr-18 18:30N 43°27' W 002°42'4 8.7
2018-Apr-18 18:00N 43°31' W 002°43'1 1.7
2018-Apr-18 17:22N 43°32' W 002°43'0 0.1
2018-Apr-18 16:56N 43°32' W 002°43'0 0.4
2018-Apr-18 16:29N 43°32' W 002°43'0 0.4
2018-Apr-18 15:59N 43°33' W 002°43'0 0.5
2018-Apr-18 15:24N 43°33' W 002°43'0 0.2
2018-Apr-18 15:00N 43°33' W 002°43'0 0.2
2018-Apr-18 14:28N 43°33' W 002°43'0 0.2
2018-Apr-18 14:00N 43°33' W 002°43'0 0.3
2018-Apr-18 13:30N 43°33' W 002°43'0 0.3
2018-Apr-18 13:00N 43°33' W 002°42'0 0.5
2018-Apr-18 12:30N 43°33' W 002°42'0 0.6
2018-Apr-18 12:00N 43°34' W 002°42'0 0.4
2018-Apr-18 11:30N 43°34' W 002°42'0 0.4
2018-Apr-18 10:54N 43°34' W 002°41'0 0.5
2018-Apr-18 10:26N 43°34' W 002°41'0 0.5
2018-Apr-18 10:00N 43°34' W 002°41'0 0.4
2018-Apr-18 09:30N 43°34' W 002°41'0 0.4
2018-Apr-18 08:57N 43°35' W 002°41'0 0.5
2018-Apr-18 08:30N 43°35' W 002°41'0 0.3
2018-Apr-18 07:59N 43°35' W 002°41'0 0.4
2018-Apr-18 07:29N 43°35' W 002°41'1 1.0
2018-Apr-18 06:41N 43°35' W 002°42'0 0.8
2018-Apr-18 06:30N 43°35' W 002°41'0 0.5
2018-Apr-18 06:00N 43°35' W 002°41'0 0.5
2018-Apr-18 05:31N 43°35' W 002°41'0 0.5
2018-Apr-18 05:00N 43°35' W 002°40'0 0.2
2018-Apr-18 04:30N 43°35' W 002°40'1 2.1
2018-Apr-18 04:00N 43°34' W 002°41'1 2.0
2018-Apr-18 03:30N 43°33' W 002°42'1 2.7
2018-Apr-18 02:58N 43°32' W 002°43'0 0.4
2018-Apr-18 02:30N 43°32' W 002°43'3 7.1
2018-Apr-18 02:00N 43°29' W 002°43'4 7.0
2018-Apr-18 01:30N 43°25' W 002°43'0 0.6
2018-Apr-18 01:00N 43°25' W 002°43'0 0.0
2018-Apr-17 16:07N 43°25' W 002°43'0 0.0
2018-Apr-17 15:53N 43°25' W 002°43'1 1.3
2018-Apr-17 15:30N 43°25' W 002°43'2 4.2
2018-Apr-17 15:00N 43°27' W 002°43'1 2.2
2018-Apr-17 14:30N 43°28' W 002°43'3 4.9
2018-Apr-17 13:59N 43°31' W 002°43'2 4.0
2018-Apr-17 13:30N 43°33' W 002°43'1 1.0
2018-Apr-17 13:00N 43°33' W 002°42'0 0.5
2018-Apr-17 12:30N 43°33' W 002°42'0 0.1
2018-Apr-17 11:59N 43°33' W 002°42'1 0.7
2018-Apr-17 10:11N 43°34' W 002°41'0 0.5
2018-Apr-17 10:00N 43°34' W 002°41'0 0.4
2018-Apr-17 09:30N 43°34' W 002°41'0 0.5
2018-Apr-17 08:59N 43°35' W 002°41'1 0.6
2018-Apr-17 07:56N 43°35' W 002°41'0 0.6
2018-Apr-17 07:30N 43°36' W 002°40'0 0.3
2018-Apr-17 06:59N 43°36' W 002°40'0 0.2
2018-Apr-17 06:30N 43°36' W 002°40'0 0.6
2018-Apr-17 06:00N 43°36' W 002°40'0 0.1
2018-Apr-17 05:29N 43°36' W 002°40'0 0.1
2018-Apr-17 05:00N 43°36' W 002°40'0 0.3
2018-Apr-17 04:30N 43°36' W 002°40'1 2.5
2018-Apr-17 03:59N 43°35' W 002°40'1 2.0
2018-Apr-17 03:30N 43°34' W 002°41'1 2.0
2018-Apr-17 03:00N 43°33' W 002°42'1 1.6
2018-Apr-17 02:30N 43°33' W 002°43'3 5.5
2018-Apr-17 02:00N 43°30' W 002°43'4 7.7
2018-Apr-17 01:30N 43°26' W 002°43'1 1.9
2018-Apr-17 01:00N 43°25' W 002°43'0 0.0
2018-Apr-16 10:23N 43°25' W 002°43'0 0.0
2018-Apr-16 09:48N 43°25' W 002°43'0 0.0
2018-Apr-16 09:30N 43°25' W 002°43'0 0.4
2018-Apr-16 08:53N 43°25' W 002°43'0 0.1
2018-Apr-16 08:30N 43°25' W 002°43'0 0.1
2018-Apr-16 06:22N 43°25' W 002°43'  
2018-Apr-13 07:15N 43°25' W 002°43'0 0.0
2018-Apr-13 06:57N 43°25' W 002°43'0 0.0
2018-Apr-13 06:15N 43°25' W 002°43'0 0.0
2018-Apr-13 05:57N 43°25' W 002°43'0 0.0
2018-Apr-11 10:12N 43°25' W 002°43'0 0.0
2018-Apr-11 09:59N 43°25' W 002°43'0 0.0
2018-Apr-11 09:26N 43°25' W 002°43'0 0.0
2018-Apr-11 08:18N 43°25' W 002°43'0 0.0
2018-Apr-11 07:57N 43°25' W 002°43'0 0.0
2018-Apr-11 07:21N 43°25' W 002°43'0 0.0
2018-Apr-11 07:00N 43°25' W 002°43'0 0.0
2018-Apr-11 06:30N 43°25' W 002°43'0 0.0
2018-Apr-11 05:56N 43°25' W 002°43'  
Track history (hours):
 
Tides and Currents Weather Stations Pressure Air Temp Water Temp Dewpoint Dewpoint Depression Visibility Wind Speed Wind Dir Waves Ship Positions

Gure Fatima :

Last reported at 2018-Apr-20 14:00 UTC. Time now 2018-Apr-21 11:49 UTC.
Position N 43°25' W 002°43'.

Length 28 m; draft 3.2 m.

Type: Fishing. MMSI: 224081840.

Date/timePositionNaut miles runAvg speedWind from/ knotsBaromVisibWave heightAir tempDewpointWater temp
2018-Apr-20 14:00N 43°25' W 002°43'3 6.2
2018-Apr-20 13:29N 43°28' W 002°43'4 5.8
2018-Apr-20 12:52N 43°32' W 002°44'0 0.8
2018-Apr-20 12:25N 43°32' W 002°44'0 0.5
2018-Apr-20 12:00N 43°32' W 002°43'0 0.5
2018-Apr-20 11:30N 43°33' W 002°43'0 0.6
2018-Apr-20 11:00N 43°33' W 002°43'0 0.8
2018-Apr-20 10:26N 43°33' W 002°43'0 0.7
2018-Apr-20 10:00N 43°33' W 002°42'0 0.5
2018-Apr-20 09:31N 43°33' W 002°42'0 0.6
2018-Apr-20 09:00N 43°34' W 002°42'0 0.6
2018-Apr-20 08:30N 43°34' W 002°41'0 0.6
2018-Apr-20 08:00N 43°34' W 002°41'0 0.6
2018-Apr-20 07:31N 43°34' W 002°41'0 0.4
2018-Apr-20 06:58N 43°34' W 002°41'0 0.5
2018-Apr-20 06:30N 43°34' W 002°40'1 2.6
2018-Apr-20 05:59N 43°34' W 002°38'0 0.5
2018-Apr-20 05:30N 43°34' W 002°39'0 0.6
2018-Apr-20 05:00N 43°35' W 002°39'0 0.6
2018-Apr-20 04:30N 43°35' W 002°40'0 0.7
2018-Apr-20 04:00N 43°35' W 002°40'0 0.8
2018-Apr-20 03:30N 43°34' W 002°40'2 3.2
2018-Apr-20 03:00N 43°33' W 002°42'2 3.1
2018-Apr-20 02:30N 43°32' W 002°43'2 4.0
2018-Apr-20 01:59N 43°34' W 002°43'0 0.6
2018-Apr-20 01:30N 43°34' W 002°43'0 0.6
2018-Apr-20 00:57N 43°34' W 002°44'0 0.5
2018-Apr-20 00:30N 43°34' W 002°44'0 0.6
2018-Apr-20 00:00N 43°34' W 002°44'0 0.5
2018-Apr-19 23:30N 43°33' W 002°44'0 0.4
2018-Apr-19 22:59N 43°33' W 002°45'0 0.2
2018-Apr-19 22:30N 43°33' W 002°45'0 0.3
2018-Apr-19 21:57N 43°33' W 002°44'0 0.5
2018-Apr-19 21:30N 43°33' W 002°44'0 0.4
2018-Apr-19 21:00N 43°33' W 002°44'0 0.3
2018-Apr-19 20:26N 43°33' W 002°44'0 0.3
2018-Apr-19 20:01N 43°33' W 002°44'0 0.2
2018-Apr-19 19:30N 43°33' W 002°44'0 0.3
2018-Apr-19 19:00N 43°32' W 002°43'0 0.2
2018-Apr-19 18:30N 43°32' W 002°43'0 0.1
2018-Apr-19 18:00N 43°33' W 002°43'0 0.5
2018-Apr-19 17:31N 43°32' W 002°43'0 0.3
2018-Apr-19 17:00N 43°32' W 002°43'0 0.3
2018-Apr-19 16:30N 43°33' W 002°43'0 0.3
2018-Apr-19 16:01N 43°33' W 002°43'0 0.3
2018-Apr-19 15:30N 43°33' W 002°43'0 0.5
2018-Apr-19 14:59N 43°33' W 002°43'0 0.5
2018-Apr-19 14:30N 43°33' W 002°43'0 0.3
2018-Apr-19 14:01N 43°33' W 002°42'0 0.3
2018-Apr-19 13:30N 43°33' W 002°42'0 0.4
2018-Apr-19 13:00N 43°33' W 002°42'0 0.4
2018-Apr-19 12:30N 43°34' W 002°42'0 0.6
2018-Apr-19 12:00N 43°34' W 002°41'0 0.2
2018-Apr-19 11:30N 43°34' W 002°41'0 0.3
2018-Apr-19 11:00N 43°34' W 002°41'0 0.6
2018-Apr-19 10:30N 43°34' W 002°41'0 0.5
2018-Apr-19 10:00N 43°34' W 002°41'0 0.4
2018-Apr-19 09:30N 43°35' W 002°41'0 0.4
2018-Apr-19 09:00N 43°35' W 002°40'0 0.4
2018-Apr-19 08:29N 43°35' W 002°40'0 0.5
2018-Apr-19 08:00N 43°35' W 002°40'0 0.5
2018-Apr-19 07:31N 43°35' W 002°40'1 1.4
2018-Apr-19 07:00N 43°36' W 002°40'0 0.3
2018-Apr-19 06:30N 43°36' W 002°40'0 0.4
2018-Apr-19 06:01N 43°36' W 002°40'0 0.2
2018-Apr-19 05:30N 43°36' W 002°40'0 0.3
2018-Apr-19 05:00N 43°36' W 002°40'1 1.1
2018-Apr-19 04:30N 43°35' W 002°40'1 1.8
2018-Apr-19 03:59N 43°34' W 002°41'1 2.3
2018-Apr-19 03:30N 43°33' W 002°42'1 2.6
2018-Apr-19 02:59N 43°32' W 002°43'2 3.1
2018-Apr-19 02:29N 43°31' W 002°43'3 7.2
2018-Apr-19 02:00N 43°28' W 002°42'3 5.1
2018-Apr-19 01:30N 43°25' W 002°43'0 0.0
2018-Apr-18 19:27N 43°25' W 002°43'0 0.5
2018-Apr-18 18:42N 43°25' W 002°43'2 7.8
2018-Apr-18 18:30N 43°27' W 002°42'4 8.7
2018-Apr-18 18:00N 43°31' W 002°43'1 1.7
2018-Apr-18 17:22N 43°32' W 002°43'0 0.1
2018-Apr-18 16:56N 43°32' W 002°43'0 0.4
2018-Apr-18 16:29N 43°32' W 002°43'0 0.4
2018-Apr-18 15:59N 43°33' W 002°43'0 0.5
2018-Apr-18 15:24N 43°33' W 002°43'0 0.2
2018-Apr-18 15:00N 43°33' W 002°43'0 0.2
2018-Apr-18 14:28N 43°33' W 002°43'0 0.2
2018-Apr-18 14:00N 43°33' W 002°43'0 0.3
2018-Apr-18 13:30N 43°33' W 002°43'0 0.3
2018-Apr-18 13:00N 43°33' W 002°42'0 0.5
2018-Apr-18 12:30N 43°33' W 002°42'0 0.6
2018-Apr-18 12:00N 43°34' W 002°42'0 0.4
2018-Apr-18 11:30N 43°34' W 002°42'0 0.4
2018-Apr-18 10:54N 43°34' W 002°41'0 0.5
2018-Apr-18 10:26N 43°34' W 002°41'0 0.5
2018-Apr-18 10:00N 43°34' W 002°41'0 0.4
2018-Apr-18 09:30N 43°34' W 002°41'0 0.4
2018-Apr-18 08:57N 43°35' W 002°41'0 0.5
2018-Apr-18 08:30N 43°35' W 002°41'0 0.3
2018-Apr-18 07:59N 43°35' W 002°41'0 0.4
2018-Apr-18 07:29N 43°35' W 002°41'1 1.0
2018-Apr-18 06:41N 43°35' W 002°42'0 0.8
2018-Apr-18 06:30N 43°35' W 002°41'0 0.5
2018-Apr-18 06:00N 43°35' W 002°41'0 0.5
2018-Apr-18 05:31N 43°35' W 002°41'0 0.5
2018-Apr-18 05:00N 43°35' W 002°40'0 0.2
2018-Apr-18 04:30N 43°35' W 002°40'1 2.1
2018-Apr-18 04:00N 43°34' W 002°41'1 2.0
2018-Apr-18 03:30N 43°33' W 002°42'1 2.7
2018-Apr-18 02:58N 43°32' W 002°43'0 0.4
2018-Apr-18 02:30N 43°32' W 002°43'3 7.1
2018-Apr-18 02:00N 43°29' W 002°43'4 7.0
2018-Apr-18 01:30N 43°25' W 002°43'0 0.6
2018-Apr-18 01:00N 43°25' W 002°43'0 0.0
2018-Apr-17 16:07N 43°25' W 002°43'0 0.0
2018-Apr-17 15:53N 43°25' W 002°43'1 1.3
2018-Apr-17 15:30N 43°25' W 002°43'2 4.2
2018-Apr-17 15:00N 43°27' W 002°43'1 2.2
2018-Apr-17 14:30N 43°28' W 002°43'3 4.9
2018-Apr-17 13:59N 43°31' W 002°43'2 4.0
2018-Apr-17 13:30N 43°33' W 002°43'1 1.0
2018-Apr-17 13:00N 43°33' W 002°42'0 0.5
2018-Apr-17 12:30N 43°33' W 002°42'0 0.1
2018-Apr-17 11:59N 43°33' W 002°42'1 0.7
2018-Apr-17 10:11N 43°34' W 002°41'0 0.5
2018-Apr-17 10:00N 43°34' W 002°41'0 0.4
2018-Apr-17 09:30N 43°34' W 002°41'0 0.5
2018-Apr-17 08:59N 43°35' W 002°41'1 0.6
2018-Apr-17 07:56N 43°35' W 002°41'0 0.6
2018-Apr-17 07:30N 43°36' W 002°40'0 0.3
2018-Apr-17 06:59N 43°36' W 002°40'0 0.2
2018-Apr-17 06:30N 43°36' W 002°40'0 0.6
2018-Apr-17 06:00N 43°36' W 002°40'0 0.1
2018-Apr-17 05:29N 43°36' W 002°40'0 0.1
2018-Apr-17 05:00N 43°36' W 002°40'0 0.3
2018-Apr-17 04:30N 43°36' W 002°40'1 2.5
2018-Apr-17 03:59N 43°35' W 002°40'1 2.0
2018-Apr-17 03:30N 43°34' W 002°41'1 2.0
2018-Apr-17 03:00N 43°33' W 002°42'1 1.6
2018-Apr-17 02:30N 43°33' W 002°43'3 5.5
2018-Apr-17 02:00N 43°30' W 002°43'4 7.7
2018-Apr-17 01:30N 43°26' W 002°43'1 1.9
2018-Apr-17 01:00N 43°25' W 002°43'0 0.0
2018-Apr-16 10:23N 43°25' W 002°43'0 0.0
2018-Apr-16 09:48N 43°25' W 002°43'0 0.0
2018-Apr-16 09:30N 43°25' W 002°43'0 0.4
2018-Apr-16 08:53N 43°25' W 002°43'0 0.1
2018-Apr-16 08:30N 43°25' W 002°43'0 0.1
2018-Apr-16 06:22N 43°25' W 002°43'  
2018-Apr-13 07:15N 43°25' W 002°43'0 0.0
2018-Apr-13 06:57N 43°25' W 002°43'0 0.0
2018-Apr-13 06:15N 43°25' W 002°43'0 0.0
2018-Apr-13 05:57N 43°25' W 002°43'0 0.0
2018-Apr-11 10:12N 43°25' W 002°43'0 0.0
2018-Apr-11 09:59N 43°25' W 002°43'0 0.0
2018-Apr-11 09:26N 43°25' W 002°43'0 0.0
2018-Apr-11 08:18N 43°25' W 002°43'0 0.0
2018-Apr-11 07:57N 43°25' W 002°43'0 0.0
2018-Apr-11 07:21N 43°25' W 002°43'0 0.0
2018-Apr-11 07:00N 43°25' W 002°43'0 0.0
2018-Apr-11 06:30N 43°25' W 002°43'0 0.0
2018-Apr-11 05:56N 43°25' W 002°43'  

Dump ship's entire track history